sensor_id;sensor_type;location;lat;lon;timestamp;P1;durP1;ratioP1;P2;durP2;ratioP2
64426;SDS011;50772;51.482;-0.580;2022-07-29T00:02:44;1.63;;;1.25;;
64426;SDS011;50772;51.482;-0.580;2022-07-29T00:08:21;1.10;;;1.05;;
64426;SDS011;50772;51.482;-0.580;2022-07-29T00:10:46;1.52;;;1.42;;
64426;SDS011;50772;51.482;-0.580;2022-07-29T00:54:21;1.40;;;1.27;;
64426;SDS011;50772;51.482;-0.580;2022-07-29T00:56:46;1.58;;;1.48;;
64426;SDS011;50772;51.482;-0.580;2022-07-29T00:59:11;1.95;;;1.20;;
64426;SDS011;50772;51.482;-0.580;2022-07-29T01:01:36;1.58;;;1.48;;
64426;SDS011;50772;51.482;-0.580;2022-07-29T01:04:02;1.55;;;1.38;;
64426;SDS011;50772;51.482;-0.580;2022-07-29T01:06:27;1.30;;;1.30;;
64426;SDS011;50772;51.482;-0.580;2022-07-29T01:08:53;2.42;;;1.13;;
64426;SDS011;50772;51.482;-0.580;2022-07-29T01:11:18;1.17;;;1.17;;
64426;SDS011;50772;51.482;-0.580;2022-07-29T01:16:25;1.50;;;1.40;;
64426;SDS011;50772;51.482;-0.580;2022-07-29T01:18:55;1.08;;;1.08;;
64426;SDS011;50772;51.482;-0.580;2022-07-29T01:21:26;2.80;;;1.20;;
64426;SDS011;50772;51.482;-0.580;2022-07-29T01:31:35;2.30;;;1.35;;
64426;SDS011;50772;51.482;-0.580;2022-07-29T01:34:05;1.30;;;1.13;;
64426;SDS011;50772;51.482;-0.580;2022-07-29T01:36:43;1.63;;;1.40;;
64426;SDS011;50772;51.482;-0.580;2022-07-29T01:39:10;1.90;;;1.10;;
64426;SDS011;50772;51.482;-0.580;2022-07-29T01:41:36;3.05;;;1.20;;
64426;SDS011;50772;51.482;-0.580;2022-07-29T01:44:04;1.52;;;1.40;;
64426;SDS011;50772;51.482;-0.580;2022-07-29T01:46:35;1.02;;;1.00;;
64426;SDS011;50772;51.482;-0.580;2022-07-29T01:49:06;1.15;;;1.13;;
64426;SDS011;50772;51.482;-0.580;2022-07-29T01:56:22;1.40;;;1.20;;
64426;SDS011;50772;51.482;-0.580;2022-07-29T01:58:48;1.30;;;1.20;;
64426;SDS011;50772;51.482;-0.580;2022-07-29T02:01:14;1.20;;;1.20;;
64426;SDS011;50772;51.482;-0.580;2022-07-29T02:03:42;2.40;;;1.30;;
64426;SDS011;50772;51.482;-0.580;2022-07-29T02:06:08;1.42;;;1.33;;
64426;SDS011;50772;51.482;-0.580;2022-07-29T02:08:34;1.13;;;1.08;;
64426;SDS011;50772;51.482;-0.580;2022-07-29T02:11:00;1.77;;;1.20;;
64426;SDS011;50772;51.482;-0.580;2022-07-29T02:38:34;1.20;;;1.20;;
64426;SDS011;50772;51.482;-0.580;2022-07-29T02:41:16;1.30;;;1.20;;
64426;SDS011;50772;51.482;-0.580;2022-07-29T02:43:43;1.63;;;1.20;;
64426;SDS011;50772;51.482;-0.580;2022-07-29T02:46:14;3.70;;;1.10;;
64426;SDS011;50772;51.482;-0.580;2022-07-29T02:48:41;1.05;;;1.00;;
64426;SDS011;50772;51.482;-0.580;2022-07-29T02:51:12;2.95;;;1.17;;
64426;SDS011;50772;51.482;-0.580;2022-07-29T02:53:38;1.25;;;1.23;;
64426;SDS011;50772;51.482;-0.580;2022-07-29T02:56:13;1.83;;;1.27;;
64426;SDS011;50772;51.482;-0.580;2022-07-29T02:58:45;1.30;;;1.20;;
64426;SDS011;50772;51.482;-0.580;2022-07-29T03:01:15;1.40;;;1.30;;
64426;SDS011;50772;51.482;-0.580;2022-07-29T03:03:42;1.55;;;1.15;;
64426;SDS011;50772;51.482;-0.580;2022-07-29T03:06:07;1.30;;;1.20;;
64426;SDS011;50772;51.482;-0.580;2022-07-29T03:08:33;1.75;;;1.48;;
64426;SDS011;50772;51.482;-0.580;2022-07-29T03:10:59;2.20;;;1.40;;
64426;SDS011;50772;51.482;-0.580;2022-07-29T03:16:00;1.85;;;1.67;;
64426;SDS011;50772;51.482;-0.580;2022-07-29T03:18:26;1.60;;;1.50;;
64426;SDS011;50772;51.482;-0.580;2022-07-29T03:20:51;2.28;;;1.23;;
64426;SDS011;50772;51.482;-0.580;2022-07-29T03:23:20;1.33;;;1.20;;
64426;SDS011;50772;51.482;-0.580;2022-07-29T03:25:47;1.25;;;1.20;;
64426;SDS011;50772;51.482;-0.580;2022-07-29T03:28:13;1.10;;;1.10;;
64426;SDS011;50772;51.482;-0.580;2022-07-29T03:30:38;1.40;;;1.10;;
64426;SDS011;50772;51.482;-0.580;2022-07-29T03:33:03;1.10;;;1.10;;
64426;SDS011;50772;51.482;-0.580;2022-07-29T03:35:29;1.30;;;1.20;;
64426;SDS011;50772;51.482;-0.580;2022-07-29T03:37:56;1.42;;;1.33;;
64426;SDS011;50772;51.482;-0.580;2022-07-29T03:40:23;1.40;;;1.30;;
64426;SDS011;50772;51.482;-0.580;2022-07-29T03:42:51;1.40;;;1.33;;
64426;SDS011;50772;51.482;-0.580;2022-07-29T03:45:17;1.30;;;1.20;;
64426;SDS011;50772;51.482;-0.580;2022-07-29T03:47:45;1.58;;;1.48;;
64426;SDS011;50772;51.482;-0.580;2022-07-29T03:50:12;1.10;;;1.10;;
64426;SDS011;50772;51.482;-0.580;2022-07-29T03:52:38;1.50;;;1.33;;
64426;SDS011;50772;51.482;-0.580;2022-07-29T03:55:04;1.13;;;1.13;;
64426;SDS011;50772;51.482;-0.580;2022-07-29T03:57:30;2.35;;;1.50;;
64426;SDS011;50772;51.482;-0.580;2022-07-29T03:59:58;1.38;;;1.20;;
64426;SDS011;50772;51.482;-0.580;2022-07-29T04:02:23;3.50;;;1.40;;
64426;SDS011;50772;51.482;-0.580;2022-07-29T04:04:50;1.25;;;1.15;;
64426;SDS011;50772;51.482;-0.580;2022-07-29T04:07:16;1.63;;;1.30;;
64426;SDS011;50772;51.482;-0.580;2022-07-29T04:09:41;1.13;;;1.13;;
64426;SDS011;50772;51.482;-0.580;2022-07-29T04:12:06;1.95;;;1.20;;
64426;SDS011;50772;51.482;-0.580;2022-07-29T04:28:29;1.10;;;1.00;;
64426;SDS011;50772;51.482;-0.580;2022-07-29T04:30:54;1.20;;;1.20;;
64426;SDS011;50772;51.482;-0.580;2022-07-29T04:33:20;1.60;;;1.13;;
64426;SDS011;50772;51.482;-0.580;2022-07-29T04:35:45;1.60;;;1.20;;
64426;SDS011;50772;51.482;-0.580;2022-07-29T04:38:10;1.83;;;1.40;;
64426;SDS011;50772;51.482;-0.580;2022-07-29T04:40:36;1.27;;;1.17;;
64426;SDS011;50772;51.482;-0.580;2022-07-29T04:43:01;1.35;;;1.20;;
64426;SDS011;50772;51.482;-0.580;2022-07-29T04:45:27;1.70;;;1.60;;
64426;SDS011;50772;51.482;-0.580;2022-07-29T04:47:52;1.20;;;1.10;;
64426;SDS011;50772;51.482;-0.580;2022-07-29T04:50:17;2.17;;;1.13;;
64426;SDS011;50772;51.482;-0.580;2022-07-29T04:52:43;1.58;;;1.27;;
64426;SDS011;50772;51.482;-0.580;2022-07-29T04:55:08;2.10;;;1.20;;
64426;SDS011;50772;51.482;-0.580;2022-07-29T04:57:37;2.78;;;1.55;;
64426;SDS011;50772;51.482;-0.580;2022-07-29T05:00:05;1.23;;;1.13;;
64426;SDS011;50772;51.482;-0.580;2022-07-29T05:02:30;1.50;;;1.40;;
64426;SDS011;50772;51.482;-0.580;2022-07-29T05:04:56;1.15;;;1.10;;
64426;SDS011;50772;51.482;-0.580;2022-07-29T05:07:21;1.40;;;1.30;;
64426;SDS011;50772;51.482;-0.580;2022-07-29T05:09:46;2.17;;;1.35;;
64426;SDS011;50772;51.482;-0.580;2022-07-29T05:12:12;1.55;;;1.20;;
64426;SDS011;50772;51.482;-0.580;2022-07-29T05:14:37;1.73;;;1.50;;
64426;SDS011;50772;51.482;-0.580;2022-07-29T05:17:02;1.17;;;1.13;;
64426;SDS011;50772;51.482;-0.580;2022-07-29T05:19:28;1.60;;;1.50;;
64426;SDS011;50772;51.482;-0.580;2022-07-29T05:21:53;2.80;;;1.50;;
64426;SDS011;50772;51.482;-0.580;2022-07-29T05:24:18;3.25;;;1.38;;
64426;SDS011;50772;51.482;-0.580;2022-07-29T05:26:44;3.78;;;1.25;;
64426;SDS011;50772;51.482;-0.580;2022-07-29T05:29:12;1.10;;;1.08;;
64426;SDS011;50772;51.482;-0.580;2022-07-29T05:31:37;1.30;;;1.20;;
64426;SDS011;50772;51.482;-0.580;2022-07-29T05:34:03;1.05;;;1.02;;
64426;SDS011;50772;51.482;-0.580;2022-07-29T05:36:28;2.13;;;1.10;;
64426;SDS011;50772;51.482;-0.580;2022-07-29T05:38:53;1.63;;;1.52;;
64426;SDS011;50772;51.482;-0.580;2022-07-29T05:41:21;1.10;;;1.05;;
64426;SDS011;50772;51.482;-0.580;2022-07-29T05:43:54;1.58;;;1.02;;
64426;SDS011;50772;51.482;-0.580;2022-07-29T05:46:19;1.85;;;1.25;;
64426;SDS011;50772;51.482;-0.580;2022-07-29T05:48:45;1.90;;;1.23;;
64426;SDS011;50772;51.482;-0.580;2022-07-29T05:51:10;1.40;;;1.30;;
64426;SDS011;50772;51.482;-0.580;2022-07-29T05:53:35;1.25;;;1.17;;
64426;SDS011;50772;51.482;-0.580;2022-07-29T05:56:04;1.33;;;1.23;;
64426;SDS011;50772;51.482;-0.580;2022-07-29T05:58:32;1.20;;;1.10;;
64426;SDS011;50772;51.482;-0.580;2022-07-29T06:00:58;2.65;;;1.20;;
64426;SDS011;50772;51.482;-0.580;2022-07-29T06:03:24;1.05;;;1.05;;
64426;SDS011;50772;51.482;-0.580;2022-07-29T06:05:50;1.90;;;1.27;;
64426;SDS011;50772;51.482;-0.580;2022-07-29T06:08:21;1.75;;;1.27;;
64426;SDS011;50772;51.482;-0.580;2022-07-29T06:10:46;2.45;;;1.17;;
64426;SDS011;50772;51.482;-0.580;2022-07-29T09:39:06;1.33;;;0.87;;
64426;SDS011;50772;51.482;-0.580;2022-07-29T09:41:43;1.50;;;1.10;;
64426;SDS011;50772;51.482;-0.580;2022-07-29T10:20:20;3.03;;;0.95;;
64426;SDS011;50772;51.482;-0.580;2022-07-29T10:22:46;0.70;;;0.70;;
64426;SDS011;50772;51.482;-0.580;2022-07-29T10:25:14;0.90;;;0.90;;
64426;SDS011;50772;51.482;-0.580;2022-07-29T10:27:43;1.70;;;1.20;;
64426;SDS011;50772;51.482;-0.580;2022-07-29T10:30:13;2.53;;;1.23;;
64426;SDS011;50772;51.482;-0.580;2022-07-29T10:44:18;1.05;;;0.90;;
64426;SDS011;50772;51.482;-0.580;2022-07-29T10:46:52;1.40;;;0.80;;
64426;SDS011;50772;51.482;-0.580;2022-07-29T10:49:41;1.67;;;1.10;;
64426;SDS011;50772;51.482;-0.580;2022-07-29T10:52:28;1.38;;;0.85;;
64426;SDS011;50772;51.482;-0.580;2022-07-29T10:58:19;1.08;;;0.95;;
64426;SDS011;50772;51.482;-0.580;2022-07-29T11:00:50;0.98;;;0.88;;
64426;SDS011;50772;51.482;-0.580;2022-07-29T11:06:11;1.83;;;1.00;;
64426;SDS011;50772;51.482;-0.580;2022-07-29T11:42:51;1.25;;;1.10;;
64426;SDS011;50772;51.482;-0.580;2022-07-29T11:45:24;1.45;;;1.10;;
64426;SDS011;50772;51.482;-0.580;2022-07-29T11:54:16;1.30;;;1.15;;
64426;SDS011;50772;51.482;-0.580;2022-07-29T11:57:06;1.10;;;1.05;;
64426;SDS011;50772;51.482;-0.580;2022-07-29T11:59:50;1.38;;;1.27;;
64426;SDS011;50772;51.482;-0.580;2022-07-29T12:05:17;1.23;;;1.23;;
64426;SDS011;50772;51.482;-0.580;2022-07-29T18:17:46;1.02;;;1.02;;
64426;SDS011;50772;51.482;-0.580;2022-07-29T18:20:18;1.35;;;1.25;;
64426;SDS011;50772;51.482;-0.580;2022-07-29T18:22:44;1.80;;;1.05;;
64426;SDS011;50772;51.482;-0.580;2022-07-29T18:25:34;3.50;;;1.30;;
64426;SDS011;50772;51.482;-0.580;2022-07-29T18:31:06;1.30;;;1.27;;
64426;SDS011;50772;51.482;-0.580;2022-07-29T18:54:33;1.30;;;1.20;;
64426;SDS011;50772;51.482;-0.580;2022-07-29T18:57:09;3.15;;;1.05;;
64426;SDS011;50772;51.482;-0.580;2022-07-29T18:59:43;1.40;;;1.30;;
64426;SDS011;50772;51.482;-0.580;2022-07-29T19:02:29;3.63;;;1.88;;
64426;SDS011;50772;51.482;-0.580;2022-07-29T19:41:31;1.80;;;1.27;;
64426;SDS011;50772;51.482;-0.580;2022-07-29T19:50:27;1.08;;;1.00;;
64426;SDS011;50772;51.482;-0.580;2022-07-29T19:53:12;1.40;;;1.23;;
64426;SDS011;50772;51.482;-0.580;2022-07-29T19:58:44;3.20;;;1.73;;
64426;SDS011;50772;51.482;-0.580;2022-07-29T20:37:59;1.45;;;1.33;;
64426;SDS011;50772;51.482;-0.580;2022-07-29T20:40:45;1.50;;;1.40;;
64426;SDS011;50772;51.482;-0.580;2022-07-29T20:46:26;1.50;;;1.50;;
64426;SDS011;50772;51.482;-0.580;2022-07-29T20:49:23;1.40;;;1.30;;
64426;SDS011;50772;51.482;-0.580;2022-07-29T20:55:15;1.20;;;1.20;;
64426;SDS011;50772;51.482;-0.580;2022-07-29T21:00:24;1.70;;;1.60;;
64426;SDS011;50772;51.482;-0.580;2022-07-29T21:03:10;1.65;;;1.55;;
64426;SDS011;50772;51.482;-0.580;2022-07-29T21:08:34;1.48;;;1.38;;
64426;SDS011;50772;51.482;-0.580;2022-07-29T21:14:01;1.58;;;1.48;;
64426;SDS011;50772;51.482;-0.580;2022-07-29T21:21:38;1.77;;;1.48;;
64426;SDS011;50772;51.482;-0.580;2022-07-29T21:24:03;1.48;;;1.40;;
64426;SDS011;50772;51.482;-0.580;2022-07-29T21:37:58;2.05;;;1.17;;
64426;SDS011;50772;51.482;-0.580;2022-07-29T21:40:26;1.23;;;1.23;;
64426;SDS011;50772;51.482;-0.580;2022-07-29T22:01:21;1.77;;;1.55;;
64426;SDS011;50772;51.482;-0.580;2022-07-29T22:03:46;1.80;;;1.70;;
64426;SDS011;50772;51.482;-0.580;2022-07-29T22:09:22;3.10;;;1.33;;
64426;SDS011;50772;51.482;-0.580;2022-07-29T22:11:50;1.50;;;1.40;;
64426;SDS011;50772;51.482;-0.580;2022-07-29T22:14:16;2.03;;;1.35;;
64426;SDS011;50772;51.482;-0.580;2022-07-29T22:16:48;1.50;;;1.50;;
64426;SDS011;50772;51.482;-0.580;2022-07-29T22:19:14;3.40;;;1.75;;
64426;SDS011;50772;51.482;-0.580;2022-07-29T22:27:50;2.67;;;1.52;;
64426;SDS011;50772;51.482;-0.580;2022-07-29T22:30:16;1.40;;;1.40;;
64426;SDS011;50772;51.482;-0.580;2022-07-29T22:32:43;1.92;;;1.75;;
64426;SDS011;50772;51.482;-0.580;2022-07-29T22:35:09;1.70;;;1.60;;
64426;SDS011;50772;51.482;-0.580;2022-07-29T22:37:36;1.83;;;1.73;;
64426;SDS011;50772;51.482;-0.580;2022-07-29T22:40:05;2.50;;;1.90;;
64426;SDS011;50772;51.482;-0.580;2022-07-29T22:42:31;1.80;;;1.70;;
64426;SDS011;50772;51.482;-0.580;2022-07-29T22:44:56;1.83;;;1.70;;
64426;SDS011;50772;51.482;-0.580;2022-07-29T22:47:24;1.83;;;1.73;;
64426;SDS011;50772;51.482;-0.580;2022-07-29T22:49:50;2.63;;;1.63;;
64426;SDS011;50772;51.482;-0.580;2022-07-29T22:52:15;1.63;;;1.52;;
64426;SDS011;50772;51.482;-0.580;2022-07-29T22:54:40;1.85;;;1.75;;
64426;SDS011;50772;51.482;-0.580;2022-07-29T22:57:08;2.60;;;1.58;;
64426;SDS011;50772;51.482;-0.580;2022-07-29T22:59:33;1.55;;;1.45;;
64426;SDS011;50772;51.482;-0.580;2022-07-29T23:02:02;2.78;;;1.90;;
64426;SDS011;50772;51.482;-0.580;2022-07-29T23:04:30;2.08;;;1.98;;
64426;SDS011;50772;51.482;-0.580;2022-07-29T23:06:55;3.75;;;1.85;;
64426;SDS011;50772;51.482;-0.580;2022-07-29T23:09:20;2.05;;;1.90;;
64426;SDS011;50772;51.482;-0.580;2022-07-29T23:11:46;2.00;;;1.90;;
64426;SDS011;50772;51.482;-0.580;2022-07-29T23:14:11;2.08;;;1.92;;
64426;SDS011;50772;51.482;-0.580;2022-07-29T23:16:37;2.15;;;1.88;;
64426;SDS011;50772;51.482;-0.580;2022-07-29T23:19:02;2.90;;;2.20;;
64426;SDS011;50772;51.482;-0.580;2022-07-29T23:21:28;3.38;;;1.98;;
64426;SDS011;50772;51.482;-0.580;2022-07-29T23:23:53;3.05;;;2.08;;
64426;SDS011;50772;51.482;-0.580;2022-07-29T23:26:18;2.58;;;2.20;;
64426;SDS011;50772;51.482;-0.580;2022-07-29T23:28:46;2.10;;;2.00;;
64426;SDS011;50772;51.482;-0.580;2022-07-29T23:31:13;2.35;;;2.25;;
64426;SDS011;50772;51.482;-0.580;2022-07-29T23:33:49;2.60;;;2.50;;
64426;SDS011;50772;51.482;-0.580;2022-07-29T23:36:16;2.50;;;2.38;;
64426;SDS011;50772;51.482;-0.580;2022-07-29T23:41:43;3.33;;;3.08;;
64426;SDS011;50772;51.482;-0.580;2022-07-29T23:44:31;2.30;;;2.20;;
64426;SDS011;50772;51.482;-0.580;2022-07-29T23:52:55;3.53;;;3.13;;
64426;SDS011;50772;51.482;-0.580;2022-07-29T23:55:44;11.27;;;4.13;;
